Time;durP1;ratioP1;P1;durP2;ratioP2;P2;SDS_P1;SDS_P2;PMS_P1;PMS_P2;Temp;Humidity;BMP_temperature;BMP_pressure;BME280_temperature;BME280_humidity;BME280_pressure;Samples;Min_cycle;Max_cycle;Signal;HPM_P1;HPM_P2
2023/08/13 00:01:48;;;;;;;6.58;2.70;;;;;;;18.48;58.76;100528.92;1743010;82;21074;-63
2023/08/13 00:04:16;;;;;;;5.75;2.62;;;;;;;18.45;59.00;100536.34;1742985;82;21122;-64
2023/08/13 00:06:46;;;;;;;5.87;2.80;;;;;;;18.42;59.22;100531.30;1745731;82;21046;-63
2023/08/13 00:09:15;;;;;;;4.95;2.70;;;;;;;18.36;59.34;100532.28;1751320;81;21035;-64
2023/08/13 00:11:44;;;;;;;5.85;2.85;;;;;;;18.32;59.46;100533.86;1751498;81;21122;-64
2023/08/13 00:14:13;;;;;;;5.00;2.90;;;;;;;18.30;59.56;100537.42;1751400;82;21427;-64
2023/08/13 00:16:41;;;;;;;4.78;2.70;;;;;;;18.27;59.65;100540.14;1751288;82;21050;-63
2023/08/13 00:19:10;;;;;;;4.87;2.80;;;;;;;18.24;59.83;100536.47;1751287;82;21082;-63
2023/08/13 00:21:39;;;;;;;5.17;3.10;;;;;;;18.17;60.09;100536.28;1751522;82;21035;-64
2023/08/13 00:24:09;;;;;;;7.22;2.83;;;;;;;18.11;60.19;100535.32;1751580;81;21523;-63
2023/08/13 00:26:38;;;;;;;5.10;2.52;;;;;;;18.05;60.48;100527.44;1751524;81;21027;-63
2023/08/13 00:29:08;;;;;;;5.70;2.85;;;;;;;18.02;60.69;100532.08;1751337;81;21039;-63
2023/08/13 00:31:37;;;;;;;4.47;2.50;;;;;;;17.98;60.93;100530.88;1751362;82;21031;-63
2023/08/13 00:34:06;;;;;;;6.90;2.90;;;;;;;17.92;61.11;100530.47;1751460;82;21094;-63
2023/08/13 00:36:35;;;;;;;5.53;2.70;;;;;;;17.85;61.44;100531.69;1751517;82;21046;-64
2023/08/13 00:39:04;;;;;;;4.33;2.90;;;;;;;17.80;61.75;100532.41;1751546;82;21030;-63
2023/08/13 00:41:33;;;;;;;5.83;2.80;;;;;;;17.77;61.94;100548.14;1751482;82;21103;-64
2023/08/13 00:44:02;;;;;;;4.72;2.80;;;;;;;17.74;62.10;100544.47;1751351;81;21054;-63
2023/08/13 00:46:32;;;;;;;10.28;3.72;;;;;;;17.71;62.30;100546.33;1751515;81;21034;-64
2023/08/13 00:49:01;;;;;;;5.12;2.83;;;;;;;17.70;62.36;100540.48;1751439;82;21046;-64
2023/08/13 00:51:31;;;;;;;4.97;2.80;;;;;;;17.69;62.38;100540.19;1722878;82;21471;-64
2023/08/13 00:53:59;;;;;;;5.10;2.70;;;;;;;17.67;62.58;100542.36;1751335;82;21066;-63
2023/08/13 00:56:29;;;;;;;3.72;2.70;;;;;;;17.66;62.71;100543.41;1751507;82;21023;-63
2023/08/13 00:58:57;;;;;;;8.35;2.85;;;;;;;17.63;62.89;100545.27;1751240;81;21063;-63
2023/08/13 01:01:26;;;;;;;4.08;2.75;;;;;;;17.60;63.11;100538.83;1751308;82;21039;-64
2023/08/13 01:03:56;;;;;;;5.22;2.50;;;;;;;17.59;63.31;100544.07;1751363;81;21051;-62
2023/08/13 01:06:45;;;;;;;3.27;2.37;;;;;;;17.52;63.51;100544.70;1751229;82;21022;-63
2023/08/13 01:09:44;;;;;;;7.87;2.70;;;;;;;17.47;63.73;100542.64;1751517;82;21042;-63
2023/08/13 01:12:21;;;;;;;6.90;2.50;;;;;;;17.44;63.82;100543.97;1751355;81;21031;-64
2023/08/13 01:15:03;;;;;;;;;;;;;;;17.43;63.92;100549.75;1753842;82;21455;-63
2023/08/13 01:17:33;;;;;;;5.85;2.80;;;;;;;17.40;64.01;100551.61;1751550;82;20161;-63
2023/08/13 01:20:06;;;;;;;4.22;2.85;;;;;;;17.35;64.25;100545.41;1751505;82;21030;-63
2023/08/13 01:22:37;;;;;;;5.42;2.62;;;;;;;17.36;64.37;100546.25;1751279;82;21054;-63
2023/08/13 01:25:08;;;;;;;7.55;3.27;;;;;;;17.34;64.43;100542.33;1751559;81;21039;-63
2023/08/13 01:28:16;;;;;;;7.70;3.20;;;;;;;17.30;64.61;100543.89;1751501;81;21055;-62
2023/08/13 01:30:51;;;;;;;6.47;2.90;;;;;;;17.27;64.84;100553.22;1745463;82;21143;-63
2023/08/13 01:33:26;;;;;;;6.08;3.00;;;;;;;17.19;65.14;100551.64;1750190;82;21035;-63
2023/08/13 01:36:01;;;;;;;4.42;2.75;;;;;;;17.20;65.26;100550.55;1751581;82;21042;-63
2023/08/13 01:38:31;;;;;;;4.55;2.60;;;;;;;17.24;65.29;100555.08;1751515;82;21087;-63
2023/08/13 01:41:01;;;;;;;5.12;2.87;;;;;;;17.26;65.27;100557.06;1751301;81;21086;-63
2023/08/13 01:43:30;;;;;;;5.47;2.75;;;;;;;17.24;65.25;100554.53;1751560;82;20979;-63
2023/08/13 01:46:00;;;;;;;4.58;2.70;;;;;;;17.20;65.34;100550.55;1751325;82;21031;-64
2023/08/13 01:48:29;;;;;;;5.58;2.80;;;;;;;17.17;65.56;100556.56;1751366;82;21056;-64
2023/08/13 01:50:58;;;;;;;6.33;2.60;;;;;;;17.16;65.68;100556.27;1751545;81;21038;-63
2023/08/13 01:53:27;;;;;;;4.15;2.58;;;;;;;17.12;65.81;100563.36;1751207;82;21051;-65
2023/08/13 01:55:56;;;;;;;5.47;2.58;;;;;;;17.07;65.95;100561.84;1751265;82;21043;-63
2023/08/13 01:58:27;;;;;;;6.95;2.83;;;;;;;17.06;66.09;100560.15;1751215;81;21007;-64
2023/08/13 02:00:56;;;;;;;4.50;2.85;;;;;;;17.10;65.98;100564.13;1751253;82;21054;-63
2023/08/13 02:03:25;;;;;;;4.22;2.50;;;;;;;17.12;65.84;100563.36;1751523;82;21074;-63
2023/08/13 02:05:54;;;;;;;5.55;2.87;;;;;;;17.12;65.75;100561.97;1751072;81;22046;-63
2023/08/13 02:08:24;;;;;;;4.80;2.90;;;;;;;17.14;65.71;100566.73;1718989;82;21090;-62
2023/08/13 02:10:52;;;;;;;6.37;2.62;;;;;;;17.15;65.59;100568.42;1715452;84;21094;-63
2023/08/13 02:13:21;;;;;;;8.95;3.98;;;;;;;17.17;65.53;100565.41;1715386;82;21537;-63
2023/08/13 02:15:51;;;;;;;5.78;3.10;;;;;;;17.18;65.39;100562.95;1715263;82;21074;-63
2023/08/13 02:18:19;;;;;;;5.33;3.37;;;;;;;17.22;65.21;100571.09;1715161;84;21101;-63
2023/08/13 02:20:50;;;;;;;8.58;3.15;;;;;;;17.27;65.09;100568.45;1715452;82;21070;-63
2023/08/13 02:23:18;;;;;;;6.03;2.90;;;;;;;17.25;65.03;100570.07;1715306;84;21035;-63
2023/08/13 02:25:47;;;;;;;11.68;3.47;;;;;;;17.23;65.07;100571.39;1715239;82;21074;-63
2023/08/13 02:28:16;;;;;;;6.53;2.75;;;;;;;17.23;65.12;100570.84;1715395;84;21094;-62
2023/08/13 02:30:45;;;;;;;5.40;2.80;;;;;;;17.23;65.15;100566.69;1715188;84;21078;-64
2023/08/13 02:33:16;;;;;;;10.78;3.52;;;;;;;17.20;65.22;100574.09;1715235;84;21074;-64
2023/08/13 02:35:44;;;;;;;6.65;3.10;;;;;;;17.22;65.26;100573.86;1715429;82;21124;-63
2023/08/13 02:38:13;;;;;;;6.28;2.62;;;;;;;17.21;65.25;100575.78;1715266;82;21494;-63
2023/08/13 02:40:42;;;;;;;6.22;2.90;;;;;;;17.22;65.24;100575.23;1715491;84;21043;-63
2023/08/13 02:43:10;;;;;;;8.93;3.37;;;;;;;17.21;65.13;100575.78;1715508;84;21047;-63
2023/08/13 02:45:38;;;;;;;5.12;3.05;;;;;;;17.19;65.20;100577.09;1715219;84;21579;-63
2023/08/13 02:48:07;;;;;;;7.58;3.10;;;;;;;17.13;65.36;100580.27;1715585;82;21537;-63
2023/08/13 02:50:37;;;;;;;6.10;3.02;;;;;;;17.08;65.61;100579.59;1715472;82;21050;-63
2023/08/13 02:53:06;;;;;;;6.47;3.12;;;;;;;17.05;65.80;100575.08;1715476;84;21474;-63
2023/08/13 02:55:34;;;;;;;7.65;3.02;;;;;;;17.05;65.97;100582.00;1715413;84;21079;-63
2023/08/13 02:58:03;;;;;;;10.90;3.42;;;;;;;17.03;66.05;100577.23;1715234;84;21550;-63
2023/08/13 03:00:35;;;;;;;5.47;2.72;;;;;;;17.03;66.16;100580.00;1707901;84;21151;-64
2023/08/13 03:03:05;;;;;;;7.28;3.12;;;;;;;17.01;66.25;100579.39;1715458;84;21106;-62
2023/08/13 03:05:34;;;;;;;6.55;3.52;;;;;;;17.00;66.32;100576.32;1715208;84;21117;-62
2023/08/13 03:08:04;;;;;;;6.65;3.27;;;;;;;17.02;66.21;100576.93;1727368;82;21062;-63
2023/08/13 03:10:33;;;;;;;7.15;3.50;;;;;;;17.01;66.25;100580.23;1742725;82;21054;-63
2023/08/13 03:13:03;;;;;;;7.95;3.65;;;;;;;16.96;66.44;100584.80;1742771;82;21509;-63
2023/08/13 03:15:32;;;;;;;6.55;3.70;;;;;;;16.89;66.71;100586.78;1742805;82;21444;-64
2023/08/13 03:18:01;;;;;;;6.25;3.50;;;;;;;16.86;66.92;100596.94;1742840;82;21472;-63
2023/08/13 03:20:31;;;;;;;6.62;3.62;;;;;;;16.86;66.86;100592.78;1742930;82;21023;-63
2023/08/13 03:23:00;;;;;;;8.73;3.47;;;;;;;16.86;66.88;100590.86;1742993;82;21419;-64
2023/08/13 03:25:29;;;;;;;6.83;3.77;;;;;;;16.90;66.91;100592.63;1742683;82;21024;-64
2023/08/13 03:27:58;;;;;;;10.20;3.95;;;;;;;16.86;66.99;100594.17;1742832;82;21031;-64
2023/08/13 03:30:27;;;;;;;5.75;3.70;;;;;;;16.86;67.18;100596.40;1742808;82;21047;-63
2023/08/13 03:32:57;;;;;;;7.03;4.15;;;;;;;16.85;67.23;100596.09;1742787;82;21294;-63
2023/08/13 03:35:25;;;;;;;7.97;4.30;;;;;;;16.85;67.23;100597.48;1742766;82;21063;-66
2023/08/13 03:37:54;;;;;;;9.00;4.08;;;;;;;16.87;67.24;100601.39;1743025;82;21239;-64
2023/08/13 03:40:23;;;;;;;9.33;3.50;;;;;;;16.89;67.17;100602.00;1743052;82;21074;-63
2023/08/13 03:42:52;;;;;;;7.10;3.30;;;;;;;16.93;67.10;100604.10;1743003;82;21533;-63
2023/08/13 03:45:22;;;;;;;7.35;3.52;;;;;;;16.98;67.01;100600.09;1742807;82;21023;-64
2023/08/13 03:47:51;;;;;;;5.37;3.60;;;;;;;17.01;66.97;100605.69;1743048;82;21463;-63
2023/08/13 03:50:20;;;;;;;10.05;4.35;;;;;;;17.01;66.90;100609.30;1742983;82;21529;-64
2023/08/13 03:52:50;;;;;;;6.10;3.67;;;;;;;17.01;67.00;100606.54;1744774;82;21498;-64
2023/08/13 03:55:19;;;;;;;7.45;3.72;;;;;;;17.02;67.14;100608.23;1742904;82;21491;-63
2023/08/13 03:57:52;;;;;;;7.20;3.50;;;;;;;17.03;67.20;100609.07;1743032;82;21028;-63
2023/08/13 04:00:22;;;;;;;7.35;3.45;;;;;;;17.06;67.05;100612.75;1720923;82;21063;-63
2023/08/13 04:02:53;;;;;;;8.25;4.28;;;;;;;17.08;66.83;100613.36;1742965;81;21027;-64
2023/08/13 04:05:23;;;;;;;6.50;3.35;;;;;;;17.10;66.68;100612.59;1743076;82;21031;-63
2023/08/13 04:07:51;;;;;;;10.20;3.70;;;;;;;17.10;66.62;100615.36;1742797;82;21066;-62
2023/08/13 04:10:20;;;;;;;8.45;3.50;;;;;;;17.09;66.68;100616.44;1742823;82;21087;-64
2023/08/13 04:12:49;;;;;;;12.58;3.90;;;;;;;17.13;66.65;100613.50;1742993;82;21031;-65
2023/08/13 04:15:18;;;;;;;6.03;3.60;;;;;;;17.17;66.63;100619.41;1743020;82;21011;-64
2023/08/13 04:17:47;;;;;;;9.13;3.87;;;;;;;17.20;66.60;100623.94;1742807;82;21078;-63
2023/08/13 04:20:16;;;;;;;7.42;3.70;;;;;;;17.24;66.51;100611.31;1743047;82;21011;-64
2023/08/13 04:22:45;;;;;;;7.30;3.72;;;;;;;17.27;66.40;100617.76;1742812;82;21071;-64
2023/08/13 04:25:14;;;;;;;6.67;3.52;;;;;;;17.31;66.37;100623.67;1742960;82;21117;-64
2023/08/13 04:27:43;;;;;;;9.03;3.55;;;;;;;17.35;66.34;100622.96;1744756;82;21062;-63
2023/08/13 04:30:13;;;;;;;5.97;3.58;;;;;;;17.43;66.21;100625.92;1742920;82;21493;-63
2023/08/13 04:32:46;;;;;;;9.08;3.98;;;;;;;17.48;66.07;100615.52;1742823;82;21031;-62
2023/08/13 04:35:16;;;;;;;8.05;4.10;;;;;;;17.57;66.04;100623.82;1720791;82;21027;-64
2023/08/13 04:37:45;;;;;;;9.03;4.00;;;;;;;17.64;65.90;100619.02;1742878;82;21555;-63
2023/08/13 04:40:14;;;;;;;11.30;4.10;;;;;;;17.69;66.18;100615.02;1742816;82;21059;-64
2023/08/13 04:42:43;;;;;;;6.78;4.08;;;;;;;17.74;66.21;100622.07;1743026;82;21039;-63
2023/08/13 04:45:12;;;;;;;11.18;5.58;;;;;;;17.78;65.82;100610.80;1742974;82;21032;-63
2023/08/13 04:47:43;;;;;;;13.30;5.62;;;;;;;17.85;65.78;100616.23;1742884;82;21463;-63
2023/08/13 04:50:13;;;;;;;14.83;5.97;;;;;;;17.92;65.64;100612.26;1743066;82;21031;-63
2023/08/13 04:52:43;;;;;;;12.28;5.30;;;;;;;18.01;65.45;100612.19;1742989;82;21114;-64
2023/08/13 04:55:14;;;;;;;9.78;4.70;;;;;;;18.10;65.26;100618.22;1744704;82;21061;-63
2023/08/13 04:57:43;;;;;;;38.15;7.00;;;;;;;18.20;64.91;100625.92;1742820;82;21008;-63
2023/08/13 05:00:14;;;;;;;13.45;5.10;;;;;;;18.30;64.48;100619.25;1743279;82;21079;-64
2023/08/13 05:02:45;;;;;;;8.33;4.25;;;;;;;18.39;64.32;100620.57;1742832;82;21042;-63
2023/08/13 05:05:14;;;;;;;11.48;4.83;;;;;;;18.50;63.62;100622.48;1742881;82;21091;-64
2023/08/13 05:07:43;;;;;;;9.98;4.53;;;;;;;18.61;63.01;100620.25;1744690;82;21075;-65
2023/08/13 05:10:12;;;;;;;10.32;4.10;;;;;;;18.74;62.65;100626.06;1746749;81;21038;-64
2023/08/13 05:12:41;;;;;;;11.08;3.67;;;;;;;18.87;62.08;100623.58;1751288;81;21454;-64
2023/08/13 05:15:10;;;;;;;13.78;3.90;;;;;;;18.97;61.62;100623.23;1751492;82;21027;-63
2023/08/13 05:17:40;;;;;;;8.33;3.77;;;;;;;19.06;61.24;100618.12;1751242;81;21007;-64
2023/08/13 05:20:09;;;;;;;7.33;3.87;;;;;;;19.16;61.00;100625.81;1751536;82;21513;-63
2023/08/13 05:22:37;;;;;;;13.00;4.20;;;;;;;19.25;60.59;100625.71;1751242;82;21043;-64
2023/08/13 05:25:07;;;;;;;12.28;4.97;;;;;;;19.35;60.05;100625.05;1751527;82;20991;-64
2023/08/13 05:27:36;;;;;;;14.90;5.37;;;;;;;19.42;59.81;100632.14;1751511;82;21023;-63
2023/08/13 05:30:07;;;;;;;13.50;4.80;;;;;;;19.50;59.54;100635.05;1751430;82;21049;-64
2023/08/13 05:32:36;;;;;;;11.93;5.22;;;;;;;19.56;59.43;100635.50;1751306;82;21062;-63
2023/08/13 05:35:07;;;;;;;12.68;4.47;;;;;;;19.63;59.06;100637.57;1751332;81;21026;-63
2023/08/13 05:37:35;;;;;;;14.40;5.22;;;;;;;19.67;58.82;100629.02;1751226;82;21086;-63
2023/08/13 05:40:08;;;;;;;13.83;5.20;;;;;;;19.73;58.79;100630.80;1751415;81;21073;-63
2023/08/13 05:42:37;;;;;;;11.20;4.78;;;;;;;19.76;58.65;100626.12;1751310;82;21027;-65
2023/08/13 05:45:07;;;;;;;14.93;5.50;;;;;;;19.78;58.47;100626.70;1751405;82;21019;-64
2023/08/13 05:47:36;;;;;;;15.93;6.78;;;;;;;19.81;58.18;100634.55;1751506;81;21077;-63
2023/08/13 05:50:06;;;;;;;16.15;6.60;;;;;;;19.83;57.99;100629.57;1751513;82;21070;-64
2023/08/13 05:52:36;;;;;;;17.17;6.47;;;;;;;19.88;57.94;100635.77;1751471;81;21182;-64
2023/08/13 05:55:06;;;;;;;18.30;5.33;;;;;;;19.93;57.97;100642.25;1751417;82;21082;-64
2023/08/13 05:57:35;;;;;;;12.70;5.42;;;;;;;19.98;57.64;100639.25;1751448;82;21364;-63
2023/08/13 06:00:09;;;;;;;14.45;5.03;;;;;;;19.99;57.61;100632.59;1751357;81;21490;-64
2023/08/13 06:02:43;;;;;;;9.93;4.28;;;;;;;20.03;57.74;100626.81;1751408;82;21009;-64
2023/08/13 06:05:12;;;;;;;12.93;4.78;;;;;;;20.07;57.67;100625.21;1751215;82;21050;-63
2023/08/13 06:07:41;;;;;;;14.47;5.40;;;;;;;20.09;57.17;100627.19;1751174;82;21062;-64
2023/08/13 06:10:11;;;;;;;15.05;6.40;;;;;;;20.11;57.19;100631.95;1751141;82;21046;-64
2023/08/13 06:12:39;;;;;;;12.70;5.78;;;;;;;20.14;56.91;100630.05;1751292;82;21442;-64
2023/08/13 06:15:09;;;;;;;16.25;5.83;;;;;;;20.19;56.72;100637.11;1751219;82;21035;-64
2023/08/13 06:17:38;;;;;;;13.50;5.35;;;;;;;20.23;56.54;100636.89;1751405;81;21015;-63
2023/08/13 06:20:10;;;;;;;11.43;5.17;;;;;;;20.28;56.41;100635.58;1751235;81;21474;-64
2023/08/13 06:22:39;;;;;;;18.15;5.65;;;;;;;20.31;56.33;100637.84;1751401;82;21491;-64
2023/08/13 06:25:09;;;;;;;12.95;4.75;;;;;;;20.37;56.17;100635.98;1751491;81;21057;-64
2023/08/13 06:27:38;;;;;;;9.20;4.80;;;;;;;20.42;56.04;100635.53;1751236;82;21494;-65
2023/08/13 06:30:08;;;;;;;10.53;4.53;;;;;;;20.48;55.86;100635.90;1751295;82;21031;-64
2023/08/13 06:32:39;;;;;;;13.65;5.15;;;;;;;20.56;55.52;100631.82;1751445;81;21059;-64
2023/08/13 06:35:09;;;;;;;12.30;4.50;;;;;;;20.74;55.35;100637.07;1751468;82;20991;-63
2023/08/13 06:37:38;;;;;;;13.18;5.20;;;;;;;21.10;54.61;100635.58;1751621;81;21011;-63
2023/08/13 06:40:10;;;;;;;13.25;5.53;;;;;;;21.56;53.47;100643.09;1751573;81;21098;-62
2023/08/13 06:42:39;;;;;;;15.63;5.78;;;;;;;22.00;52.32;100640.95;1751249;82;21027;-64
2023/08/13 06:45:09;;;;;;;13.75;5.47;;;;;;;22.39;51.28;100635.97;1751413;81;21128;-63
2023/08/13 06:47:37;;;;;;;12.30;5.03;;;;;;;22.77;50.46;100631.16;1751446;81;21059;-63
2023/08/13 06:50:07;;;;;;;8.40;4.25;;;;;;;23.25;49.42;100636.10;1751271;81;21471;-63
2023/08/13 06:52:36;;;;;;;9.45;4.12;;;;;;;23.69;48.29;100627.55;1751491;81;21450;-63
2023/08/13 06:55:06;;;;;;;10.35;4.12;;;;;;;24.07;47.23;100637.09;1751486;82;21473;-63
2023/08/13 06:57:35;;;;;;;9.25;3.98;;;;;;;24.29;46.24;100642.69;1751358;82;21078;-63
2023/08/13 07:00:05;;;;;;;6.87;3.83;;;;;;;24.56;45.60;100639.53;1751377;82;21063;-63
2023/08/13 07:02:35;;;;;;;11.43;3.90;;;;;;;24.87;44.91;100638.89;1751473;82;21058;-63
2023/08/13 07:05:06;;;;;;;10.15;3.92;;;;;;;25.25;44.29;100637.88;1751202;81;21503;-63
2023/08/13 07:07:35;;;;;;;6.33;3.35;;;;;;;25.53;43.44;100631.55;1751410;82;21368;-63
2023/08/13 07:10:04;;;;;;;5.97;2.83;;;;;;;25.86;42.63;100629.92;1751319;81;21485;-63
2023/08/13 07:12:32;;;;;;;4.85;2.70;;;;;;;26.19;41.45;100626.83;1751575;81;21098;-63
2023/08/13 07:15:03;;;;;;;7.42;3.08;;;;;;;26.47;40.60;100635.00;1751277;82;21019;-63
2023/08/13 07:17:33;;;;;;;6.30;3.37;;;;;;;26.63;39.93;100630.04;1751540;82;21042;-62
2023/08/13 07:20:05;;;;;;;7.00;2.95;;;;;;;26.73;39.93;100629.95;1751316;82;21459;-62
2023/08/13 07:22:33;;;;;;;5.35;2.92;;;;;;;26.90;39.67;100632.27;1751086;81;22146;-64
2023/08/13 07:25:01;;;;;;;6.30;2.90;;;;;;;26.96;38.88;100633.04;1772470;80;21023;-62
2023/08/13 07:27:30;;;;;;;7.50;3.42;;;;;;;26.96;38.88;100633.04;1782082;80;21011;-62
2023/08/13 07:29:58;;;;;;;6.17;3.67;;;;;;;27.06;39.12;100627.30;1782299;80;21019;-63
2023/08/13 07:32:28;;;;;;;6.53;2.80;;;;;;;27.25;39.03;100630.97;1782067;80;21066;-63
2023/08/13 07:34:57;;;;;;;6.70;3.30;;;;;;;27.53;38.47;100631.16;1782039;80;21058;-62
2023/08/13 07:37:26;;;;;;;4.80;3.00;;;;;;;27.68;38.19;100627.55;1782340;80;22007;-64
2023/08/13 07:39:56;;;;;;;5.37;2.70;;;;;;;27.82;36.92;100630.42;1782311;80;21075;-62
2023/08/13 07:42:25;;;;;;;4.12;2.40;;;;;;;27.76;37.18;100628.84;1782204;80;21066;-63
2023/08/13 07:44:54;;;;;;;5.22;2.40;;;;;;;27.83;37.61;100633.51;1782235;80;21042;-63
2023/08/13 07:47:24;;;;;;;4.55;2.27;;;;;;;28.03;37.55;100626.72;1781986;80;21487;-63
2023/08/13 07:49:52;;;;;;;4.80;2.60;;;;;;;28.29;37.01;100620.08;1782206;80;21320;-64
2023/08/13 07:52:23;;;;;;;3.75;2.22;;;;;;;28.57;36.11;100623.18;1782217;80;21439;-63
2023/08/13 07:54:52;;;;;;;3.70;2.30;;;;;;;28.80;35.42;100621.33;1782230;80;21095;-62
2023/08/13 07:57:21;;;;;;;3.33;2.20;;;;;;;29.03;35.16;100628.76;1782224;80;21023;-63
2023/08/13 07:59:50;;;;;;;4.87;2.45;;;;;;;29.23;34.49;100623.81;1771614;80;21490;-61
2023/08/13 08:02:19;;;;;;;3.50;2.47;;;;;;;29.39;33.91;100624.33;1751326;82;21015;-64
2023/08/13 08:04:48;;;;;;;4.00;2.30;;;;;;;29.30;33.75;100618.02;1751342;82;21071;-64
2023/08/13 08:07:18;;;;;;;5.47;2.80;;;;;;;29.27;34.11;100613.59;1751320;81;21026;-64
2023/08/13 08:09:46;;;;;;;7.08;2.50;;;;;;;29.30;34.26;100617.19;1766391;80;21052;-65
2023/08/13 08:12:16;;;;;;;3.33;1.90;;;;;;;29.48;34.21;100610.57;1785275;80;21056;-65
2023/08/13 08:14:45;;;;;;;3.08;1.92;;;;;;;29.72;32.98;100619.31;1785785;80;21124;-66
2023/08/13 08:17:13;;;;;;;5.08;2.15;;;;;;;29.65;31.89;100607.05;1792547;80;21044;-64
2023/08/13 08:19:42;;;;;;;4.05;2.17;;;;;;;29.42;32.15;100610.98;1785257;80;20996;-64
2023/08/13 08:22:18;;;;;;;3.83;1.87;;;;;;;29.12;31.84;100611.08;1785297;80;21016;-64
2023/08/13 08:24:47;;;;;;;2.55;2.02;;;;;;;28.64;32.77;100622.80;1785173;80;21103;-63
2023/08/13 08:27:16;;;;;;;4.80;2.20;;;;;;;28.23;33.34;100615.65;1785111;80;20993;-65
2023/08/13 08:29:45;;;;;;;2.62;1.95;;;;;;;28.06;33.64;100611.44;1785011;80;21476;-65
2023/08/13 08:32:13;;;;;;;7.10;2.70;;;;;;;28.03;33.45;100618.27;1785248;80;21098;-63
2023/08/13 08:34:43;;;;;;;3.58;1.95;;;;;;;28.15;33.44;100612.14;1772560;80;21036;-65
2023/08/13 08:37:14;;;;;;;2.87;1.98;;;;;;;28.33;33.15;100607.87;1749781;82;21476;-64
2023/08/13 08:39:42;;;;;;;4.08;1.72;;;;;;;28.45;33.04;100609.34;1698773;84;21055;-63
2023/08/13 08:42:11;;;;;;;3.87;2.27;;;;;;;28.43;32.89;100608.24;1757732;81;21071;-64
2023/08/13 08:44:47;;;;;;;4.90;2.02;;;;;;;28.45;32.54;100616.38;1698932;84;21039;-64
2023/08/13 08:47:14;;;;;;;4.37;2.90;;;;;;;28.46;32.49;100604.80;1757621;81;21028;-64
2023/08/13 08:49:45;;;;;;;3.50;2.00;;;;;;;28.48;32.47;100613.78;1698772;84;21059;-64
2023/08/13 08:52:14;;;;;;;8.80;2.00;;;;;;;28.60;32.51;100603.39;1734881;81;21036;-64
2023/08/13 08:54:42;;;;;;;6.53;2.10;;;;;;;28.70;32.03;100600.39;1757895;81;21420;-64
2023/08/13 08:57:11;;;;;;;3.55;1.80;;;;;;;28.44;32.11;100605.69;1699012;84;21107;-64
2023/08/13 08:59:40;;;;;;;3.40;2.15;;;;;;;28.26;32.14;100607.44;1672198;86;21093;-64
2023/08/13 09:02:10;;;;;;;4.03;2.08;;;;;;;28.02;32.54;100607.57;1672272;86;21094;-64
2023/08/13 09:04:38;;;;;;;5.00;2.10;;;;;;;27.82;32.66;100610.71;1671888;86;21065;-63
2023/08/13 09:07:07;;;;;;;4.10;1.90;;;;;;;27.68;32.90;100602.22;1671897;86;21532;-65
2023/08/13 09:09:36;;;;;;;3.20;2.15;;;;;;;27.68;33.11;100601.38;1670283;85;21192;-65
2023/08/13 09:12:06;;;;;;;8.75;2.58;;;;;;;27.75;33.16;100611.11;1640451;87;21081;-64
2023/08/13 09:14:35;;;;;;;4.95;2.00;;;;;;;27.80;32.69;100611.59;1640468;87;21102;-64
2023/08/13 09:17:03;;;;;;;3.90;2.42;;;;;;;27.44;32.90;100609.33;1655881;83;21518;-64
2023/08/13 09:19:32;;;;;;;5.72;2.22;;;;;;;27.44;32.90;100609.33;1727961;83;21512;-63
2023/08/13 09:22:01;;;;;;;3.77;2.30;;;;;;;27.12;33.50;100611.46;1679265;83;21486;-64
2023/08/13 09:24:41;;;;;;;5.55;2.00;;;;;;;26.94;34.21;100595.94;1727879;82;21462;-66
2023/08/13 09:27:12;;;;;;;4.28;2.00;;;;;;;26.91;34.42;100594.57;1727934;83;21490;-64
2023/08/13 09:29:42;;;;;;;4.62;1.82;;;;;;;26.90;34.57;100597.69;1727850;83;21042;-64
2023/08/13 09:32:10;;;;;;;2.92;1.75;;;;;;;26.89;34.65;100600.23;1728216;82;21050;-67
2023/08/13 09:34:39;;;;;;;5.33;2.27;;;;;;;26.90;34.59;100609.77;1728165;83;21072;-63
2023/08/13 09:37:08;;;;;;;3.98;1.92;;;;;;;26.90;34.00;100594.30;1727998;83;21097;-64
2023/08/13 09:39:37;;;;;;;3.27;2.02;;;;;;;26.92;34.25;100592.59;1728155;81;21587;-65
2023/08/13 09:42:08;;;;;;;2.30;2.05;;;;;;;26.99;34.70;100591.69;1728084;83;21086;-66
2023/08/13 09:44:37;;;;;;;3.85;1.80;;;;;;;27.07;34.71;100586.78;1727951;83;21101;-66
2023/08/13 09:47:06;;;;;;;4.40;2.60;;;;;;;27.03;34.65;100594.99;1728252;83;21058;-64
2023/08/13 09:49:35;;;;;;;6.53;2.20;;;;;;;26.93;34.85;100596.51;1728099;82;21133;-65
2023/08/13 09:52:09;;;;;;;2.67;2.08;;;;;;;26.92;34.80;100596.81;1728255;82;21061;-63
2023/08/13 09:54:42;;;;;;;5.35;2.30;;;;;;;26.93;34.77;100592.86;1727834;83;21221;-67
2023/08/13 09:57:12;;;;;;;3.50;1.92;;;;;;;26.96;34.18;100593.66;1728065;83;21057;-65
2023/08/13 09:59:41;;;;;;;4.00;2.05;;;;;;;26.90;34.45;100592.06;1727895;83;21105;-65
2023/08/13 10:02:13;;;;;;;5.80;2.10;;;;;;;26.88;34.71;100598.55;1727951;83;21093;-65
2023/08/13 10:04:42;;;;;;;4.12;1.87;;;;;;;26.80;34.62;100591.62;1727904;82;21038;-64
2023/08/13 10:07:11;;;;;;;3.08;1.98;;;;;;;26.72;34.83;100600.16;1727963;83;21081;-66
2023/08/13 10:09:40;;;;;;;4.72;2.00;;;;;;;26.77;34.92;100597.28;1726417;81;21109;-65
2023/08/13 10:12:12;;;;;;;4.10;2.37;;;;;;;26.81;34.93;100599.76;1673994;86;21088;-65
2023/08/13 10:14:42;;;;;;;2.15;1.70;;;;;;;26.86;34.72;100598.86;1690859;85;21491;-64
2023/08/13 10:17:12;;;;;;;3.35;1.82;;;;;;;26.93;34.23;100609.16;1703997;84;21078;-65
2023/08/13 10:19:42;;;;;;;3.62;1.85;;;;;;;26.97;33.81;100595.34;1659783;84;21133;-66
2023/08/13 10:22:11;;;;;;;5.97;1.90;;;;;;;26.93;33.41;100591.45;1705155;84;21463;-65
2023/08/13 10:24:44;;;;;;;5.05;2.47;;;;;;;26.81;33.80;100595.55;1703550;83;21471;-67
2023/08/13 10:27:13;;;;;;;4.08;1.77;;;;;;;26.76;33.99;100594.77;1703741;83;21051;-66
2023/08/13 10:29:42;;;;;;;3.75;1.85;;;;;;;26.71;34.18;100606.09;1703835;83;21058;-65
2023/08/13 10:32:16;;;;;;;2.47;1.80;;;;;;;26.62;34.28;100598.84;1703568;84;21507;-64
2023/08/13 10:34:54;;;;;;;2.75;1.90;;;;;;;26.55;34.88;100605.40;1703837;84;21086;-64
2023/08/13 10:37:21;;;;;;;3.10;2.10;;;;;;;26.57;34.63;100599.48;1703395;83;21035;-65
2023/08/13 10:40:01;;;;;;;3.65;2.10;;;;;;;26.58;34.30;100599.75;1703874;84;21059;-63
2023/08/13 10:42:38;;;;;;;4.28;1.92;;;;;;;26.61;34.06;100593.53;1703812;84;21094;-64
2023/08/13 10:45:08;;;;;;;3.80;1.92;;;;;;;26.65;34.23;100592.63;1703863;83;21075;-65
2023/08/13 10:47:47;;;;;;;4.20;1.90;;;;;;;26.69;34.10;100593.73;1703650;83;21090;-63
2023/08/13 10:50:41;;;;;;;3.20;1.72;;;;;;;26.69;33.96;100599.36;1703825;83;21015;-63
2023/08/13 10:53:22;;;;;;;3.05;1.95;;;;;;;26.69;33.81;100609.77;1703801;83;21026;-63
2023/08/13 10:55:53;;;;;;;2.10;1.67;;;;;;;26.63;33.30;100605.31;1703741;84;21038;-62
2023/08/13 10:58:31;;;;;;;4.22;2.02;;;;;;;26.61;33.73;100607.58;1704004;83;21070;-63
2023/08/13 11:01:12;;;;;;;3.08;1.82;;;;;;;26.57;34.01;100607.91;1703400;83;21046;-64
2023/08/13 11:03:54;;;;;;;4.30;1.85;;;;;;;26.56;34.35;100604.27;1703908;84;21034;-64
2023/08/13 11:06:25;;;;;;;4.40;2.70;;;;;;;26.60;34.22;100599.72;1703834;83;21050;-65
2023/08/13 11:08:55;;;;;;;3.00;1.87;;;;;;;26.61;34.11;100602.80;1707555;84;21545;-64
2023/08/13 11:11:23;;;;;;;4.17;2.17;;;;;;;26.64;34.41;100602.20;1691672;84;21055;-65
2023/08/13 11:13:53;;;;;;;3.90;2.30;;;;;;;26.70;34.24;100602.44;1750758;82;21035;-64
2023/08/13 11:16:27;;;;;;;3.37;2.00;;;;;;;26.77;33.99;100607.13;1751340;82;21039;-63
2023/08/13 11:18:58;;;;;;;4.53;2.87;;;;;;;26.83;33.87;100586.80;1751356;82;21082;-62
2023/08/13 11:21:27;;;;;;;5.75;4.10;;;;;;;26.80;34.19;100584.03;1751208;81;21062;-65
2023/08/13 11:23:56;;;;;;;5.90;3.27;;;;;;;26.84;34.35;100581.45;1751279;82;21070;-63
2023/08/13 11:26:24;;;;;;;6.08;2.30;;;;;;;26.90;34.37;100579.41;1751085;82;21023;-62
2023/08/13 11:28:55;;;;;;;4.45;2.20;;;;;;;26.96;34.40;100588.04;1751142;81;21288;-64
2023/08/13 11:31:24;;;;;;;3.22;2.08;;;;;;;27.05;34.20;100583.44;1693398;82;21007;-63
2023/08/13 11:33:52;;;;;;;5.80;2.15;;;;;;;27.10;34.25;100584.20;1751346;82;21455;-63
2023/08/13 11:36:21;;;;;;;4.20;2.17;;;;;;;27.14;34.25;100588.08;1751176;81;21550;-65
2023/08/13 11:38:49;;;;;;;4.87;2.20;;;;;;;27.14;34.18;100585.84;1750887;82;21518;-63